Time;durP1;ratioP1;P1;durP2;ratioP2;P2;SDS_P1;SDS_P2;PMS_P1;PMS_P2;Temp;Humidity;BMP_temperature;BMP_pressure;BME280_temperature;BME280_humidity;BME280_pressure;Samples;Min_cycle;Max_cycle;Signal;HPM_P1;HPM_P2
2022/04/08 00:01:11;;;;;;;15.88;8.13;;;8.40;80.20;;;;;;5073454;28;20032;-87
2022/04/08 00:03:36;;;;;;;16.80;7.50;;;8.30;79.90;;;;;;5073384;28;20486;-88
2022/04/08 00:06:02;;;;;;;12.02;6.72;;;8.30;80.40;;;;;;5073725;28;20016;-87
2022/04/08 00:08:27;;;;;;;15.00;7.00;;;8.20;80.90;;;;;;5073502;28;20052;-88
2022/04/08 00:10:53;;;;;;;10.60;6.85;;;8.10;81.00;;;;;;5073197;28;20455;-88
2022/04/08 00:13:19;;;;;;;11.48;6.40;;;8.10;80.70;;;;;;5074514;28;20036;-88
2022/04/08 00:15:44;;;;;;;12.52;6.68;;;7.90;80.60;;;;;;5073206;28;20025;-88
2022/04/08 00:18:10;;;;;;;13.45;6.05;;;7.80;80.60;;;;;;5074311;28;20070;-88
2022/04/08 00:20:36;;;;;;;13.45;6.60;;;7.70;80.70;;;;;;5073116;28;20087;-88
2022/04/08 00:23:04;;;;;;;9.07;6.13;;;7.70;80.90;;;;;;5072952;28;20024;-88
2022/04/08 00:25:30;;;;;;;12.60;6.47;;;7.60;81.10;;;;;;5074249;28;20025;-88
2022/04/08 00:27:55;;;;;;;10.35;6.78;;;7.50;81.60;;;;;;5073358;28;20028;-88
2022/04/08 00:30:21;;;;;;;7.25;5.68;;;7.40;81.70;;;;;;5073117;28;20024;-88
2022/04/08 00:32:47;;;;;;;9.50;6.43;;;7.30;82.00;;;;;;5073084;28;20048;-88
2022/04/08 00:35:12;;;;;;;10.07;5.65;;;7.20;82.20;;;;;;5073129;28;20020;-88
2022/04/08 00:37:40;;;;;;;7.22;5.90;;;7.10;82.50;;;;;;5074325;28;20025;-88
2022/04/08 00:40:06;;;;;;;11.60;6.10;;;7.10;82.70;;;;;;5073099;28;20035;-88
2022/04/08 00:42:32;;;;;;;11.02;6.40;;;7.00;83.30;;;;;;5072873;28;20029;-88
2022/04/08 00:44:58;;;;;;;11.48;7.07;;;6.90;83.80;;;;;;5072948;28;20031;-88
2022/04/08 00:47:24;;;;;;;11.68;7.93;;;6.80;84.60;;;;;;5073167;28;20074;-88
2022/04/08 00:49:52;;;;;;;11.90;8.35;;;6.70;86.30;;;;;;5074082;28;20464;-88
2022/04/08 00:52:18;;;;;;;12.95;7.70;;;6.70;86.80;;;;;;5072814;28;20025;-88
2022/04/08 00:54:45;;;;;;;13.38;7.68;;;6.60;88.20;;;;;;5072895;28;20035;-88
2022/04/08 00:57:11;;;;;;;13.27;7.13;;;6.60;88.50;;;;;;5073874;28;20021;-88
2022/04/08 00:59:38;;;;;;;13.20;7.40;;;6.50;89.20;;;;;;5074076;28;20059;-88
2022/04/08 01:02:03;;;;;;;11.05;6.80;;;6.50;90.50;;;;;;5072884;28;20029;-88
2022/04/08 01:04:29;;;;;;;8.30;6.53;;;6.50;90.80;;;;;;5072903;28;20450;-88
2022/04/08 01:06:55;;;;;;;9.30;7.05;;;6.40;91.60;;;;;;5073921;28;20024;-88
2022/04/08 01:09:21;;;;;;;11.40;7.05;;;6.40;92.30;;;;;;5074003;28;20016;-88
2022/04/08 01:11:47;;;;;;;10.85;7.05;;;6.40;92.50;;;;;;5073486;28;20061;-88
2022/04/08 01:14:14;;;;;;;13.00;7.25;;;6.30;93.00;;;;;;5073781;28;20378;-88
2022/04/08 01:16:40;;;;;;;12.57;7.28;;;6.30;93.30;;;;;;5072631;28;20029;-88
2022/04/08 01:19:06;;;;;;;9.43;6.25;;;6.20;93.90;;;;;;5072714;28;20051;-88
2022/04/08 01:21:32;;;;;;;9.98;6.75;;;6.20;94.20;;;;;;5072762;28;20025;-88
2022/04/08 01:24:00;;;;;;;11.73;7.20;;;6.10;94.60;;;;;;5072474;28;20525;-88
2022/04/08 01:26:26;;;;;;;12.25;7.68;;;6.10;94.90;;;;;;5074018;28;20032;-88
2022/04/08 01:28:55;;;;;;;14.52;6.88;;;6.00;95.50;;;;;;5073830;28;20025;-88
2022/04/08 01:31:23;;;;;;;15.77;7.45;;;5.90;95.70;;;;;;5073616;28;20486;-88
2022/04/08 01:33:50;;;;;;;14.10;7.35;;;5.90;96.10;;;;;;5073643;28;20060;-88
2022/04/08 01:36:16;;;;;;;12.98;7.60;;;5.90;96.40;;;;;;5075513;28;20115;-88
2022/04/08 01:38:42;;;;;;;14.80;8.05;;;5.80;96.70;;;;;;5075892;28;20056;-88
2022/04/08 01:41:07;;;;;;;14.82;8.02;;;5.80;97.00;;;;;;5077178;28;20071;-88
2022/04/08 01:43:33;;;;;;;14.48;7.10;;;5.70;97.20;;;;;;5076001;28;20017;-88
2022/04/08 01:45:59;;;;;;;13.35;7.13;;;5.70;97.40;;;;;;5077158;28;20052;-88
2022/04/08 01:48:25;;;;;;;14.20;7.47;;;5.60;97.80;;;;;;5076001;28;20555;-88
2022/04/08 01:50:51;;;;;;;16.55;8.20;;;5.60;98.10;;;;;;5076067;28;20111;-88
2022/04/08 01:53:17;;;;;;;13.63;7.47;;;5.50;98.70;;;;;;5076002;28;20028;-88
2022/04/08 01:55:43;;;;;;;11.05;7.55;;;5.50;98.80;;;;;;5075727;28;20047;-88
2022/04/08 01:58:10;;;;;;;14.25;7.80;;;5.50;98.90;;;;;;5075608;28;20535;-88
2022/04/08 02:00:36;;;;;;;13.43;7.63;;;5.40;98.90;;;;;;5076731;28;20021;-88
2022/04/08 02:03:02;;;;;;;13.00;7.78;;;5.40;99.20;;;;;;5075725;28;20031;-88
2022/04/08 02:05:27;;;;;;;14.25;7.95;;;5.40;99.30;;;;;;5075627;28;20023;-88
2022/04/08 02:07:54;;;;;;;14.43;8.68;;;5.30;99.40;;;;;;5076611;28;20024;-88
2022/04/08 02:10:20;;;;;;;13.45;7.88;;;5.30;99.80;;;;;;5075276;28;20510;-88
2022/04/08 02:12:46;;;;;;;11.38;8.00;;;5.30;99.90;;;;;;5076451;28;20028;-88
2022/04/08 02:15:12;;;;;;;14.27;8.02;;;5.20;99.90;;;;;;5075533;28;20387;-88
2022/04/08 02:17:38;;;;;;;14.05;8.07;;;5.20;99.90;;;;;;5075421;28;20063;-88
2022/04/08 02:20:10;;;;;;;13.38;7.45;;;5.20;99.90;;;;;;5075620;28;20532;-88
2022/04/08 02:22:36;;;;;;;16.20;8.48;;;5.10;99.90;;;;;;5075329;28;20119;-88
2022/04/08 02:25:03;;;;;;;12.57;8.40;;;5.10;99.90;;;;;;5075234;28;20112;-88
2022/04/08 02:27:29;;;;;;;13.98;8.57;;;5.00;99.90;;;;;;5075138;28;20115;-88
2022/04/08 02:29:59;;;;;;;13.02;8.07;;;5.00;99.90;;;;;;5075089;28;20027;-88
2022/04/08 02:32:25;;;;;;;14.63;8.32;;;4.90;99.90;;;;;;5075107;28;20028;-88
2022/04/08 02:34:51;;;;;;;22.90;9.77;;;4.90;99.90;;;;;;5076090;28;20040;-88
2022/04/08 02:37:18;;;;;;;20.75;9.25;;;4.90;99.90;;;;;;5075038;28;20119;-88
2022/04/08 02:39:43;;;;;;;17.75;8.45;;;4.90;99.90;;;;;;5074824;28;20031;-88
2022/04/08 02:42:09;;;;;;;11.80;8.02;;;4.80;99.90;;;;;;5075007;28;20032;-88
2022/04/08 02:44:35;;;;;;;19.33;9.85;;;4.80;99.90;;;;;;5074842;28;20029;-88
2022/04/08 02:47:00;;;;;;;17.20;9.30;;;4.80;99.90;;;;;;5074623;28;20027;-88
2022/04/08 02:49:26;;;;;;;13.43;9.15;;;4.70;99.90;;;;;;5074524;28;20071;-88
2022/04/08 02:51:52;;;;;;;14.90;8.63;;;4.60;99.90;;;;;;5074647;28;20115;-88
2022/04/08 02:54:18;;;;;;;15.95;8.57;;;4.60;99.90;;;;;;5074497;28;20479;-88
2022/04/08 02:56:43;;;;;;;15.98;9.27;;;4.60;99.90;;;;;;5074952;28;20025;-88
2022/04/08 02:59:09;;;;;;;22.00;8.98;;;4.50;99.90;;;;;;5074387;28;20078;-88
2022/04/08 03:01:35;;;;;;;17.40;9.35;;;4.50;99.90;;;;;;5074248;28;20479;-88
2022/04/08 03:04:02;;;;;;;20.85;9.80;;;4.50;99.90;;;;;;5074394;28;20025;-88
2022/04/08 03:06:27;;;;;;;16.23;9.15;;;4.40;99.90;;;;;;5074494;28;20020;-88
2022/04/08 03:08:53;;;;;;;13.48;8.35;;;4.40;99.90;;;;;;5074341;28;20020;-88
2022/04/08 03:11:18;;;;;;;16.10;9.20;;;4.40;99.90;;;;;;5074184;28;20058;-88
2022/04/08 03:13:44;;;;;;;15.70;9.23;;;4.40;99.90;;;;;;5075320;28;20032;-88
2022/04/08 03:16:10;;;;;;;18.23;9.73;;;4.40;99.90;;;;;;5074250;28;20028;-88
2022/04/08 03:18:36;;;;;;;14.63;8.43;;;4.40;99.90;;;;;;5074208;28;20028;-88
2022/04/08 03:21:02;;;;;;;16.92;10.20;;;4.30;99.90;;;;;;5075130;28;20422;-88
2022/04/08 03:23:27;;;;;;;15.80;9.60;;;4.40;99.90;;;;;;5073801;28;20023;-88
2022/04/08 03:25:53;;;;;;;17.42;9.77;;;4.40;99.90;;;;;;5073946;28;20060;-88
2022/04/08 03:28:18;;;;;;;19.25;9.73;;;4.40;99.90;;;;;;5075069;28;20074;-88
2022/04/08 03:30:44;;;;;;;14.18;9.95;;;4.40;99.90;;;;;;5073979;28;20021;-88
2022/04/08 03:33:09;;;;;;;15.05;10.50;;;4.40;99.90;;;;;;5073936;28;20471;-88
2022/04/08 03:35:35;;;;;;;16.92;10.98;;;4.40;99.90;;;;;;5073712;28;20025;-88
2022/04/08 03:38:01;;;;;;;17.98;11.00;;;4.50;99.90;;;;;;5074372;28;20448;-88
2022/04/08 03:40:26;;;;;;;18.25;11.82;;;4.50;99.90;;;;;;5073695;28;20017;-88
2022/04/08 03:42:52;;;;;;;15.68;11.35;;;4.60;99.90;;;;;;5073584;28;20029;-87
2022/04/08 03:45:18;;;;;;;17.50;11.90;;;4.70;99.90;;;;;;5073533;28;20391;-88
2022/04/08 03:47:43;;;;;;;16.88;10.90;;;4.90;99.90;;;;;;5074703;28;20016;-88
2022/04/08 03:50:09;;;;;;;16.35;10.13;;;5.10;99.90;;;;;;5073442;28;20017;-87
2022/04/08 03:52:35;;;;;;;16.02;10.77;;;5.40;99.90;;;;;;5073575;28;20028;-86
2022/04/08 03:55:01;;;;;;;15.98;11.18;;;5.70;99.90;;;;;;5073402;28;20467;-87
2022/04/08 03:57:27;;;;;;;12.23;9.52;;;5.90;99.90;;;;;;5074353;28;20031;-86
2022/04/08 03:59:53;;;;;;;13.25;9.43;;;6.10;99.90;;;;;;5074572;28;20028;-86
2022/04/08 04:02:20;;;;;;;16.38;10.55;;;6.30;99.90;;;;;;5074576;28;20036;-87
2022/04/08 04:04:46;;;;;;;14.48;10.25;;;6.60;99.90;;;;;;5073323;28;20048;-87
2022/04/08 04:07:12;;;;;;;14.07;9.85;;;6.70;99.90;;;;;;5074476;28;20360;-87
2022/04/08 04:09:38;;;;;;;14.00;9.70;;;6.90;99.90;;;;;;5073358;28;20030;-87
2022/04/08 04:12:04;;;;;;;14.90;10.38;;;7.00;99.90;;;;;;5073137;28;20053;-87
2022/04/08 04:14:30;;;;;;;16.23;10.20;;;7.20;99.90;;;;;;5073237;28;20028;-87
2022/04/08 04:16:55;;;;;;;15.65;10.30;;;7.40;99.90;;;;;;5073097;28;20047;-87
2022/04/08 04:19:21;;;;;;;12.20;9.13;;;7.50;99.90;;;;;;5074419;28;20036;-87
2022/04/08 04:21:50;;;;;;;16.42;8.80;;;7.60;99.90;;;;;;5073308;28;20029;-87
2022/04/08 04:24:15;;;;;;;12.95;8.95;;;7.80;99.90;;;;;;5073430;28;20375;-88
2022/04/08 04:26:41;;;;;;;14.80;9.57;;;7.90;99.90;;;;;;5074241;28;20017;-87
2022/04/08 04:29:07;;;;;;;13.20;9.13;;;8.00;99.90;;;;;;5073233;28;20395;-88
2022/04/08 04:31:32;;;;;;;13.20;9.18;;;8.10;99.90;;;;;;5072905;28;20031;-87
2022/04/08 04:33:58;;;;;;;13.18;9.02;;;8.20;99.90;;;;;;5073084;28;20031;-87
2022/04/08 04:36:24;;;;;;;12.48;8.85;;;8.30;99.90;;;;;;5073022;28;20486;-88
2022/04/08 04:38:49;;;;;;;9.95;8.27;;;8.40;99.90;;;;;;5074252;28;20432;-88
2022/04/08 04:41:15;;;;;;;10.48;8.20;;;8.50;99.90;;;;;;5074176;28;20029;-88
2022/04/08 04:43:41;;;;;;;11.93;8.63;;;8.60;99.90;;;;;;5072891;28;20376;-88
2022/04/08 04:46:07;;;;;;;13.90;8.60;;;8.70;99.90;;;;;;5072919;28;20066;-88
2022/04/08 04:48:33;;;;;;;15.32;8.27;;;8.80;99.90;;;;;;5073065;28;20028;-87
2022/04/08 04:50:58;;;;;;;12.25;8.65;;;8.90;99.90;;;;;;5072851;28;20052;-88
2022/04/08 04:53:24;;;;;;;10.80;8.55;;;8.90;99.90;;;;;;5072829;28;20021;-88
2022/04/08 04:55:50;;;;;;;12.75;7.65;;;9.10;99.90;;;;;;5072831;28;20170;-88
2022/04/08 04:58:15;;;;;;;12.10;8.82;;;9.20;99.90;;;;;;5073002;28;20455;-88
2022/04/08 05:00:41;;;;;;;14.25;9.00;;;9.30;99.90;;;;;;5072904;28;20020;-88
2022/04/08 05:03:08;;;;;;;14.07;10.25;;;9.40;99.90;;;;;;5072947;28;20115;-88
2022/04/08 05:05:34;;;;;;;13.43;10.77;;;9.50;99.80;;;;;;5072834;28;20029;-88
2022/04/08 05:08:04;;;;;;;15.80;11.75;;;9.60;99.50;;;;;;5072827;28;20025;-88
2022/04/08 05:10:31;;;;;;;14.10;11.27;;;9.70;99.20;;;;;;5074478;28;20059;-87
2022/04/08 05:13:01;;;;;;;17.95;11.63;;;9.80;98.90;;;;;;5076572;28;20078;-88
2022/04/08 05:15:28;;;;;;;17.75;13.15;;;9.80;98.80;;;;;;5077600;28;20059;-87
2022/04/08 05:17:55;;;;;;;20.38;15.20;;;9.90;98.60;;;;;;5076381;28;20028;-88
2022/04/08 05:20:20;;;;;;;22.02;15.05;;;10.00;98.20;;;;;;5076351;28;20378;-87
2022/04/08 05:22:46;;;;;;;20.92;16.75;;;10.10;98.10;;;;;;5077348;28;20031;-88
2022/04/08 05:25:12;;;;;;;23.83;18.35;;;10.20;97.80;;;;;;5076399;28;20524;-88
2022/04/08 05:27:38;;;;;;;23.50;17.27;;;10.20;97.60;;;;;;5076073;28;20023;-88
2022/04/08 05:30:09;;;;;;;26.83;18.48;;;10.40;97.40;;;;;;5077305;28;20027;-88
2022/04/08 05:32:35;;;;;;;24.27;18.23;;;10.60;97.20;;;;;;5076125;28;20364;-88
2022/04/08 05:35:01;;;;;;;25.33;18.25;;;10.70;96.90;;;;;;5076140;28;20028;-88
2022/04/08 05:37:28;;;;;;;23.77;17.08;;;10.80;96.30;;;;;;5075960;28;20378;-88
2022/04/08 05:39:54;;;;;;;22.90;16.10;;;10.90;96.20;;;;;;5075957;28;20031;-88
2022/04/08 05:42:20;;;;;;;22.48;16.20;;;11.00;96.00;;;;;;5077071;28;20025;-88
2022/04/08 05:44:46;;;;;;;21.02;15.20;;;11.10;95.60;;;;;;5077133;28;20107;-88
2022/04/08 05:47:11;;;;;;;18.85;13.48;;;11.20;95.10;;;;;;5077077;28;20114;-88
2022/04/08 05:49:37;;;;;;;18.88;13.35;;;11.30;95.00;;;;;;5077010;28;20025;-88
2022/04/08 05:52:04;;;;;;;18.77;13.55;;;11.50;94.90;;;;;;5076870;28;20029;-88
2022/04/08 05:54:30;;;;;;;15.57;11.27;;;11.70;94.50;;;;;;5075932;28;20063;-89
2022/04/08 05:57:00;;;;;;;15.82;10.93;;;11.90;94.30;;;;;;5075768;28;20025;-89
2022/04/08 05:59:26;;;;;;;18.20;10.60;;;12.10;93.90;;;;;;5076240;28;20427;-88
2022/04/08 06:01:52;;;;;;;18.00;10.68;;;12.40;93.70;;;;;;5075525;28;20039;-88
2022/04/08 06:04:17;;;;;;;13.98;10.80;;;12.70;93.10;;;;;;5075703;28;20030;-89
2022/04/08 06:06:43;;;;;;;14.68;9.98;;;13.00;92.30;;;;;;5075840;28;20039;-89
2022/04/08 06:09:09;;;;;;;15.95;10.93;;;13.20;91.90;;;;;;5075737;28;20024;-89
2022/04/08 06:11:34;;;;;;;15.32;10.13;;;13.40;91.00;;;;;;5075254;28;20056;-89
2022/04/08 06:14:00;;;;;;;12.98;10.23;;;13.60;90.30;;;;;;5075583;28;20032;-88
2022/04/08 06:16:25;;;;;;;14.80;11.73;;;13.70;88.90;;;;;;5075252;28;20032;-89
2022/04/08 06:18:51;;;;;;;16.08;12.10;;;13.90;87.80;;;;;;5076603;28;20025;-90
2022/04/08 06:21:17;;;;;;;14.05;10.35;;;14.00;86.10;;;;;;5074783;28;20040;-89
2022/04/08 06:23:42;;;;;;;14.90;10.20;;;14.10;85.40;;;;;;5075306;28;20352;-89
2022/04/08 06:26:09;;;;;;;17.20;11.50;;;14.20;84.20;;;;;;5075038;28;20029;-89
2022/04/08 06:28:34;;;;;;;15.85;10.18;;;14.20;83.00;;;;;;5075059;28;20020;-89
2022/04/08 06:31:00;;;;;;;15.32;11.05;;;14.10;82.50;;;;;;5074940;28;20111;-89
2022/04/08 06:33:26;;;;;;;19.73;10.68;;;14.00;82.00;;;;;;5074859;28;20016;-89
2022/04/08 06:35:51;;;;;;;11.45;10.07;;;14.00;82.40;;;;;;5074843;28;20035;-89
2022/04/08 06:38:17;;;;;;;16.67;10.45;;;14.00;82.20;;;;;;5074802;28;20545;-89
2022/04/08 06:40:43;;;;;;;14.98;11.13;;;14.00;81.70;;;;;;5074901;28;20028;-89
2022/04/08 06:43:08;;;;;;;14.15;10.38;;;13.90;81.30;;;;;;5074680;28;20028;-89
2022/04/08 06:45:34;;;;;;;14.15;10.57;;;13.90;81.70;;;;;;5074857;28;20081;-89
2022/04/08 06:48:00;;;;;;;15.20;10.75;;;13.80;81.90;;;;;;5074896;28;20020;-89
2022/04/08 06:50:26;;;;;;;15.52;11.30;;;13.70;82.00;;;;;;5074746;28;20095;-89
2022/04/08 06:52:53;;;;;;;18.35;10.73;;;13.70;82.30;;;;;;5074530;28;20025;-90
2022/04/08 06:55:19;;;;;;;18.42;12.13;;;13.70;81.70;;;;;;5074624;28;20028;-89
2022/04/08 06:57:44;;;;;;;15.90;11.05;;;13.70;81.30;;;;;;5075741;28;20031;-89
2022/04/08 07:00:12;;;;;;;15.32;11.40;;;13.70;81.40;;;;;;5074388;28;20031;-89
2022/04/08 07:02:38;;;;;;;14.88;9.90;;;13.70;81.10;;;;;;5075496;28;20032;-90
2022/04/08 07:05:05;;;;;;;15.50;10.57;;;13.80;80.80;;;;;;5074709;28;20021;-90
2022/04/08 07:07:38;;;;;;;14.02;10.43;;;13.70;80.70;;;;;;5073697;28;20020;-90
2022/04/08 07:10:05;;;;;;;14.95;10.73;;;13.80;79.30;;;;;;5074173;28;20425;-90
2022/04/08 07:12:31;;;;;;;17.20;11.27;;;13.70;79.60;;;;;;5074374;28;20036;-89
2022/04/08 07:14:57;;;;;;;20.52;10.88;;;13.60;80.40;;;;;;5075317;28;20035;-90
2022/04/08 07:17:30;;;;;;;15.45;11.13;;;13.60;80.70;;;;;;5075190;28;20533;-90
2022/04/08 07:19:57;;;;;;;14.27;10.10;;;13.60;80.80;;;;;;5075015;28;20463;-90
2022/04/08 07:22:23;;;;;;;20.35;10.73;;;13.70;80.70;;;;;;5073917;28;20029;-91
2022/04/08 07:24:50;;;;;;;13.57;10.07;;;13.80;80.40;;;;;;5074213;28;20434;-91
2022/04/08 07:27:18;;;;;;;16.00;10.43;;;13.90;80.40;;;;;;5073792;28;20021;-91
2022/04/08 07:29:44;;;;;;;15.95;10.13;;;14.00;79.50;;;;;;5074015;28;20490;-91
2022/04/08 07:32:09;;;;;;;19.38;11.20;;;14.20;79.40;;;;;;5074490;28;20029;-91
2022/04/08 07:34:38;;;;;;;15.40;11.48;;;14.40;77.70;;;;;;5073877;28;20046;-91
2022/04/08 07:37:04;;;;;;;19.30;11.63;;;14.60;77.40;;;;;;5073710;28;20024;-91
2022/04/08 07:39:31;;;;;;;21.30;12.63;;;14.80;77.20;;;;;;5074871;28;20098;-91
2022/04/08 07:41:57;;;;;;;15.38;12.32;;;15.00;77.60;;;;;;5073704;28;20028;-91
2022/04/08 07:44:23;;;;;;;25.55;12.73;;;15.20;78.00;;;;;;5073762;28;20486;-91
2022/04/08 07:46:48;;;;;;;27.80;12.43;;;15.40;76.10;;;;;;5073367;28;20028;-91
2022/04/08 07:49:14;;;;;;;51.90;21.45;;;15.60;74.90;;;;;;5073944;28;20052;-91
2022/04/08 07:51:41;;;;;;;20.75;10.13;;;15.90;71.40;;;;;;5074632;28;20123;-92
2022/04/08 07:54:07;;;;;;;10.52;6.50;;;16.10;70.30;;;;;;5073753;28;20024;-90
2022/04/08 07:56:35;;;;;;;8.90;6.45;;;16.20;69.00;;;;;;5073512;28;20031;-91
2022/04/08 07:59:03;;;;;;;11.70;6.35;;;16.30;69.00;;;;;;5073422;28;20070;-91
2022/04/08 08:01:29;;;;;;;9.68;6.43;;;16.50;67.30;;;;;;5074572;28;20579;-92
2022/04/08 08:03:55;;;;;;;8.27;5.07;;;16.70;66.40;;;;;;5074511;28;20479;-91
2022/04/08 08:06:20;;;;;;;6.38;4.95;;;16.80;65.40;;;;;;5073439;28;20017;-91
2022/04/08 08:08:46;;;;;;;12.52;6.53;;;16.70;65.30;;;;;;5072768;28;20031;-90
2022/04/08 08:11:15;;;;;;;9.45;5.43;;;16.80;63.50;;;;;;5073325;28;20041;-91
2022/04/08 08:13:49;;;;;;;11.75;6.20;;;16.80;64.30;;;;;;5073634;28;20078;-92
2022/04/08 08:16:19;;;;;;;7.85;5.38;;;16.90;62.20;;;;;;5068897;28;20037;-91
2022/04/08 08:18:56;;;;;;;9.35;6.05;;;16.90;62.10;;;;;;5056884;28;20059;-90
2022/04/08 08:21:31;;;;;;;7.00;5.30;;;16.70;62.80;;;;;;5074197;28;20032;-90
2022/04/08 08:24:00;;;;;;;6.78;5.30;;;16.70;64.00;;;;;;5074717;28;20039;-90
2022/04/08 08:26:38;;;;;;;6.57;4.95;;;16.80;63.80;;;;;;5073742;28;20052;-91
2022/04/08 08:29:05;;;;;;;10.75;5.50;;;16.90;63.80;;;;;;5056344;28;20040;-91
2022/04/08 08:31:41;;;;;;;13.50;6.53;;;17.00;63.60;;;;;;5073050;28;20032;-93
2022/04/08 08:34:10;;;;;;;12.02;5.95;;;17.00;62.60;;;;;;5073375;28;20510;-91
2022/04/08 08:36:46;;;;;;;7.95;5.13;;;17.00;61.80;;;;;;5073817;28;20044;-90
2022/04/08 08:39:13;;;;;;;13.60;5.45;;;16.90;61.90;;;;;;5073964;28;20024;-91
2022/04/08 08:41:40;;;;;;;11.88;4.93;;;16.80;62.30;;;;;;5072900;28;20666;-90
2022/04/08 08:44:06;;;;;;;7.30;5.10;;;16.60;61.90;;;;;;5074522;28;20028;-90
2022/04/08 08:46:34;;;;;;;9.25;5.15;;;16.70;61.40;;;;;;5078152;28;20024;-90
2022/04/08 08:49:02;;;;;;;12.00;8.30;;;16.60;61.60;;;;;;5077036;28;20020;-90
2022/04/08 08:51:35;;;;;;;21.63;13.63;;;16.60;62.70;;;;;;5078069;28;20036;-90
2022/04/08 08:54:00;;;;;;;21.50;13.93;;;16.50;65.20;;;;;;5078158;28;20021;-90
2022/04/08 08:56:26;;;;;;;31.65;16.75;;;16.30;66.10;;;;;;5078055;28;20028;-90
2022/04/08 08:58:52;;;;;;;20.95;13.75;;;16.10;66.90;;;;;;5077087;28;20040;-90
2022/04/08 09:01:18;;;;;;;20.42;12.35;;;16.00;67.00;;;;;;5076633;28;20467;-90
2022/04/08 09:03:44;;;;;;;18.60;12.23;;;16.00;67.10;;;;;;5059806;28;20083;-90
2022/04/08 09:06:11;;;;;;;19.27;12.45;;;16.00;67.20;;;;;;5076711;28;20020;-90
2022/04/08 09:08:38;;;;;;;17.80;11.45;;;16.00;67.20;;;;;;5077575;28;20020;-90
2022/04/08 09:11:05;;;;;;;18.42;11.38;;;16.00;67.30;;;;;;5076361;28;20372;-90
2022/04/08 09:13:44;;;;;;;20.02;11.93;;;16.10;67.00;;;;;;5079509;28;20032;-89
2022/04/08 09:16:10;;;;;;;14.43;7.32;;;16.10;66.80;;;;;;5076892;28;20028;-90
2022/04/08 09:18:40;;;;;;;13.07;5.20;;;16.10;66.30;;;;;;5059698;28;20475;-90
2022/04/08 09:21:05;;;;;;;9.18;4.97;;;16.20;65.60;;;;;;5076223;28;20024;-92
2022/04/08 09:23:34;;;;;;;13.93;4.82;;;16.40;63.80;;;;;;5076414;28;20036;-90
2022/04/08 09:26:14;;;;;;;11.23;4.85;;;16.50;63.50;;;;;;5076339;28;20024;-91
2022/04/08 09:28:41;;;;;;;11.77;4.80;;;16.50;63.50;;;;;;5076225;28;20113;-90
2022/04/08 09:31:21;;;;;;;9.23;5.13;;;16.60;63.00;;;;;;5077414;28;20261;-92
2022/04/08 09:33:52;;;;;;;14.85;5.03;;;16.70;63.10;;;;;;5059581;28;20040;-91
2022/04/08 09:36:35;;;;;;;16.05;5.25;;;16.80;62.00;;;;;;5076683;28;20383;-90
2022/04/08 09:39:10;;;;;;;11.10;5.30;;;16.70;62.50;;;;;;5076162;28;20037;-90
2022/04/08 09:41:56;;;;;;;12.75;5.95;;;16.70;62.30;;;;;;5076748;28;20033;-90
2022/04/08 09:44:25;;;;;;;8.80;4.93;;;16.60;62.30;;;;;;5074816;28;20103;-91
2022/04/08 09:46:51;;;;;;;11.70;5.68;;;16.60;62.50;;;;;;5075894;28;20024;-91
2022/04/08 09:49:17;;;;;;;16.60;5.90;;;16.40;62.80;;;;;;5076587;28;20027;-90
2022/04/08 09:51:42;;;;;;;14.50;6.90;;;16.20;63.20;;;;;;5077744;28;20024;-91
2022/04/08 09:54:15;;;;;;;14.35;6.57;;;16.30;62.80;;;;;;5075950;28;20108;-90
2022/04/08 09:56:43;;;;;;;15.40;5.68;;;16.10;63.30;;;;;;5074748;28;20552;-90
2022/04/08 09:59:13;;;;;;;9.50;5.18;;;16.00;64.40;;;;;;5075726;28;20028;-90
2022/04/08 10:01:44;;;;;;;9.82;5.03;;;16.00;65.20;;;;;;5076760;28;20036;-90
2022/04/08 10:04:11;;;;;;;10.23;5.10;;;16.00;64.70;;;;;;5075871;28;20081;-90
2022/04/08 10:06:41;;;;;;;10.70;5.18;;;16.10;64.70;;;;;;5075821;28;20024;-91
2022/04/08 10:09:08;;;;;;;;;;;16.20;64.10;;;;;;5077080;28;20032;-91
2022/04/08 10:11:47;;;;;;;9.80;4.75;;;16.20;63.90;;;;;;5075624;28;20030;-91
2022/04/08 10:14:42;;;;;;;12.05;4.95;;;16.30;63.90;;;;;;5075588;28;20078;-90
2022/04/08 10:17:08;;;;;;;12.93;5.90;;;16.20;64.20;;;;;;5075459;28;20031;-90
2022/04/08 10:19:34;;;;;;;13.80;5.78;;;16.10;64.50;;;;;;5075079;28;20479;-90
2022/04/08 10:22:00;;;;;;;14.77;5.25;;;16.20;64.70;;;;;;5075333;28;20085;-89
2022/04/08 10:24:28;;;;;;;10.80;5.45;;;16.20;64.30;;;;;;5075314;28;20020;-92
2022/04/08 10:27:09;;;;;;;10.65;5.25;;;16.30;64.10;;;;;;5076431;28;20107;-91
2022/04/08 10:29:35;;;;;;;12.05;5.20;;;16.50;63.60;;;;;;5075108;28;20028;-91
2022/04/08 10:32:04;;;;;;;13.00;5.28;;;16.40;64.10;;;;;;5075141;28;20029;-90
2022/04/08 10:34:35;;;;;;;12.77;4.95;;;16.50;63.40;;;;;;5074901;28;20541;-90
2022/04/08 10:37:02;;;;;;;12.98;5.22;;;16.50;64.00;;;;;;5075961;28;20048;-91
2022/04/08 10:39:27;;;;;;;12.40;5.22;;;16.60;63.50;;;;;;5076199;28;20032;-90
2022/04/08 10:41:54;;;;;;;13.27;5.53;;;16.70;63.60;;;;;;5075009;28;20035;-92
2022/04/08 10:44:30;;;;;;;11.18;5.40;;;16.80;64.00;;;;;;5075179;28;20033;-90
2022/04/08 10:46:58;;;;;;;16.80;5.57;;;17.00;63.40;;;;;;5074874;28;20071;-90
2022/04/08 10:49:24;;;;;;;14.23;5.93;;;17.00;63.20;;;;;;5075558;28;20078;-88
2022/04/08 15:57:05;;;;;;;14.80;9.02;;;8.00;99.90;;;;;;5092266;27;20409;-87
2022/04/08 15:59:31;;;;;;;16.70;10.15;;;7.70;99.90;;;;;;5090960;28;20364;-88
2022/04/08 16:01:57;;;;;;;16.50;8.55;;;7.60;99.90;;;;;;5090875;28;20379;-87
2022/04/08 16:04:23;;;;;;;15.02;8.85;;;7.40;99.90;;;;;;5090763;28;20016;-87
2022/04/08 16:06:48;;;;;;;16.60;9.00;;;7.70;99.90;;;;;;5090710;28;20028;-88
2022/04/08 16:09:16;;;;;;;16.85;9.35;;;7.50;99.90;;;;;;5090450;28;20102;-88
2022/04/08 16:11:42;;;;;;;15.48;9.27;;;7.80;99.90;;;;;;5090072;28;20082;-87
2022/04/08 16:14:08;;;;;;;19.40;10.55;;;7.60;99.90;;;;;;5090430;28;20024;-87
2022/04/08 16:16:33;;;;;;;16.45;10.23;;;7.60;99.90;;;;;;5090288;28;20025;-88
2022/04/08 16:18:59;;;;;;;16.33;10.90;;;7.60;99.90;;;;;;5090392;28;20421;-87
2022/04/08 16:21:25;;;;;;;15.93;10.02;;;7.80;99.90;;;;;;5091423;28;20032;-87
2022/04/08 16:23:51;;;;;;;18.70;11.50;;;7.70;99.90;;;;;;5090360;28;20028;-87
2022/04/08 16:26:16;;;;;;;17.38;12.35;;;7.60;99.90;;;;;;5090319;28;20024;-87
2022/04/08 16:28:42;;;;;;;33.30;20.40;;;7.70;99.90;;;;;;5090029;28;20025;-87
2022/04/08 16:31:08;;;;;;;36.38;22.83;;;7.80;99.90;;;;;;5090076;28;20017;-87
2022/04/08 16:33:34;;;;;;;30.10;18.75;;;7.80;99.90;;;;;;5089818;28;20487;-87
2022/04/08 16:35:59;;;;;;;27.42;16.23;;;7.60;99.90;;;;;;5090485;28;20024;-87
2022/04/08 16:38:25;;;;;;;28.50;15.90;;;7.40;99.90;;;;;;5089737;28;20381;-87
2022/04/08 16:40:51;;;;;;;24.85;14.68;;;7.40;99.90;;;;;;5089642;28;20081;-87
2022/04/08 16:43:16;;;;;;;26.05;15.50;;;7.50;99.90;;;;;;5090968;28;20027;-87
2022/04/08 16:45:42;;;;;;;26.80;16.33;;;7.10;99.90;;;;;;5089609;28;20035;-85
2022/04/08 16:48:08;;;;;;;25.08;14.43;;;7.10;99.90;;;;;;5089322;28;20043;-84
2022/04/08 16:50:34;;;;;;;21.52;12.60;;;7.30;99.90;;;;;;5089413;28;20581;-85
2022/04/08 16:53:04;;;;;;;32.13;16.13;;;7.10;99.90;;;;;;5090349;28;20060;-85
2022/04/08 16:55:31;;;;;;;22.95;13.80;;;7.10;99.90;;;;;;5088840;28;20060;-85
2022/04/08 16:57:58;;;;;;;23.58;14.70;;;7.10;99.90;;;;;;5088952;28;20035;-85
2022/04/08 17:00:25;;;;;;;25.40;15.20;;;7.10;99.90;;;;;;5089324;28;20410;-86
2022/04/08 17:02:51;;;;;;;37.85;19.80;;;7.00;99.90;;;;;;5089206;28;20020;-85
2022/04/08 17:05:19;;;;;;;30.63;17.52;;;6.80;99.90;;;;;;5089163;28;20036;-85
2022/04/08 17:07:45;;;;;;;25.92;15.85;;;7.00;99.90;;;;;;5079210;28;20541;-86
2022/04/08 17:10:13;;;;;;;24.65;14.90;;;6.80;99.90;;;;;;5075713;28;20091;-85
2022/04/08 17:12:39;;;;;;;36.45;19.73;;;6.90;99.90;;;;;;5075428;28;20039;-85
2022/04/08 17:15:06;;;;;;;36.50;20.88;;;6.80;99.90;;;;;;5075379;28;20115;-85
2022/04/08 17:17:32;;;;;;;32.65;18.58;;;6.80;99.90;;;;;;5076566;28;20027;-85
2022/04/08 17:19:57;;;;;;;30.95;16.42;;;7.10;99.90;;;;;;5075301;28;20017;-84
2022/04/08 17:22:23;;;;;;;22.95;13.95;;;6.90;99.90;;;;;;5075363;28;20021;-84
2022/04/08 17:24:49;;;;;;;25.17;15.30;;;6.90;99.90;;;;;;5075824;28;20016;-84
2022/04/08 17:27:15;;;;;;;24.85;14.93;;;7.10;99.90;;;;;;5075122;28;20020;-84
2022/04/08 17:29:40;;;;;;;28.52;16.40;;;7.10;99.90;;;;;;5074994;28;20017;-83
2022/04/08 17:32:07;;;;;;;30.73;16.60;;;7.10;99.90;;;;;;5076075;28;20486;-83
2022/04/08 17:34:32;;;;;;;37.13;19.38;;;6.70;99.90;;;;;;5074606;28;20111;-83
2022/04/08 17:36:58;;;;;;;35.97;19.80;;;6.80;99.90;;;;;;5075836;28;20593;-84
2022/04/08 17:39:24;;;;;;;40.28;22.27;;;6.80;99.90;;;;;;5074704;28;20055;-83
2022/04/08 17:41:49;;;;;;;31.35;18.88;;;6.90;99.90;;;;;;5074702;28;20040;-84
2022/04/08 17:44:17;;;;;;;42.03;22.60;;;6.80;99.90;;;;;;5074615;28;20025;-84